createdAt,value
2017-06-09T00:02:18.967Z,70.60
2017-06-09T00:04:47.255Z,70.30
2017-06-09T00:07:14.759Z,69.80
2017-06-09T00:09:42.303Z,70.30
2017-06-09T00:12:09.807Z,70.40
2017-06-09T00:14:37.320Z,70.10
2017-06-09T00:17:04.847Z,69.90
2017-06-09T00:19:33.115Z,70.10
2017-06-09T00:22:00.635Z,70.00
2017-06-09T00:24:28.130Z,69.90
2017-06-09T00:26:56.423Z,70.20
2017-06-09T00:29:23.931Z,70.10
2017-06-09T00:31:51.427Z,70.30
2017-06-09T00:34:19.711Z,70.70
2017-06-09T00:36:47.219Z,70.70
2017-06-09T00:39:14.740Z,71.00
2017-06-09T00:41:42.248Z,71.70
2017-06-09T00:44:09.771Z,71.40
2017-06-09T00:46:37.276Z,71.80
2017-06-09T00:49:04.780Z,72.20
2017-06-09T00:51:32.304Z,72.20
2017-06-09T00:53:59.808Z,72.40
2017-06-09T00:56:27.325Z,72.60
2017-06-09T00:58:54.827Z,72.30
2017-06-09T01:01:22.355Z,71.80
2017-06-09T01:03:49.863Z,71.70
2017-06-09T01:06:17.368Z,72.10
2017-06-09T01:08:44.888Z,71.40
2017-06-09T01:11:12.384Z,71.80
2017-06-09T01:13:39.907Z,72.20
2017-06-09T01:16:07.419Z,72.30
2017-06-09T01:18:34.947Z,72.70
2017-06-09T01:21:03.216Z,73.00
2017-06-09T01:23:31.485Z,72.90
2017-06-09T01:25:59.004Z,72.90
2017-06-09T01:28:26.503Z,73.00
2017-06-09T01:30:54.791Z,73.20
2017-06-09T01:33:23.055Z,73.20
2017-06-09T01:35:50.575Z,73.10
2017-06-09T01:38:18.079Z,72.80
2017-06-09T01:40:46.347Z,73.50
2017-06-09T01:43:13.870Z,73.30
2017-06-09T01:45:41.376Z,73.20
2017-06-09T01:48:09.669Z,72.60
2017-06-09T01:50:37.172Z,72.60
2017-06-09T01:53:04.715Z,72.50
2017-06-09T01:55:32.216Z,72.80
2017-06-09T01:58:00.488Z,72.80
2017-06-09T02:00:28.011Z,72.70
2017-06-09T02:02:55.507Z,73.00
2017-06-09T02:05:23.795Z,73.30
2017-06-09T02:07:52.063Z,73.10
2017-06-09T02:10:20.355Z,72.70
2017-06-09T02:12:47.863Z,72.60
2017-06-09T02:15:15.369Z,72.30
2017-06-09T02:17:42.887Z,72.20
2017-06-09T02:20:10.387Z,72.30
2017-06-09T02:22:37.911Z,72.90
2017-06-09T02:25:05.412Z,72.70
2017-06-09T02:27:32.939Z,73.10
2017-06-09T02:30:01.203Z,73.20
2017-06-09T02:32:28.703Z,73.20
2017-06-09T02:34:56.220Z,73.00
2017-06-09T02:37:23.730Z,73.30
2017-06-09T02:39:51.248Z,73.70
2017-06-09T02:42:19.524Z,75.00
2017-06-09T02:44:47.051Z,74.40
2017-06-09T02:47:14.556Z,74.50
2017-06-09T02:49:42.061Z,75.30
2017-06-09T02:52:09.583Z,75.60
2017-06-09T02:54:37.091Z,75.80
2017-06-09T02:57:04.612Z,75.90
2017-06-09T02:59:32.117Z,75.70
2017-06-09T03:01:59.616Z,76.00
2017-06-09T03:04:27.139Z,76.10
2017-06-09T03:06:54.640Z,76.40
2017-06-09T03:09:22.164Z,76.80
2017-06-09T03:11:50.427Z,78.00
2017-06-09T03:14:17.931Z,77.20
2017-06-09T03:16:45.451Z,77.60
2017-06-09T03:19:12.956Z,77.90
2017-06-09T03:21:40.478Z,78.20
2017-06-09T03:24:08.743Z,78.50
2017-06-09T03:26:36.263Z,78.40
2017-06-09T03:29:03.763Z,78.10
2017-06-09T03:31:37.068Z,78.00
2017-06-09T03:34:05.335Z,77.80
2017-06-09T03:36:32.843Z,77.80
2017-06-09T03:39:00.359Z,78.00
2017-06-09T03:41:27.859Z,77.60
2017-06-09T03:43:55.388Z,77.30
2017-06-09T03:46:22.896Z,76.70
2017-06-09T03:48:50.397Z,76.60
2017-06-09T03:51:17.922Z,76.70
2017-06-09T03:53:45.426Z,76.70
2017-06-09T03:56:12.971Z,76.40
2017-06-09T03:58:41.243Z,76.70
2017-06-09T04:01:09.517Z,76.70
2017-06-09T04:03:37.799Z,76.80
2017-06-09T04:06:06.068Z,76.70
2017-06-09T04:08:34.355Z,76.60
2017-06-09T04:11:01.860Z,76.50
2017-06-09T04:13:29.371Z,75.90
2017-06-09T04:15:56.897Z,74.10
2017-06-09T04:18:25.183Z,65.70
2017-06-09T04:20:52.713Z,65.60
2017-06-09T04:23:20.220Z,60.60
2017-06-09T04:25:47.719Z,58.80
2017-06-09T04:28:15.246Z,59.50
2017-06-09T04:30:42.743Z,59.70
2017-06-09T04:33:10.267Z,60.80
2017-06-09T04:35:37.779Z,62.10
2017-06-09T04:38:05.279Z,64.40
2017-06-09T04:40:32.799Z,65.70
2017-06-09T04:43:00.299Z,66.90
2017-06-09T04:45:27.823Z,66.40
2017-06-09T04:47:56.096Z,63.50
2017-06-09T04:50:23.600Z,64.10
2017-06-09T04:52:51.120Z,60.00
2017-06-09T04:55:19.391Z,60.00
2017-06-09T04:57:46.916Z,60.00
2017-06-09T05:00:14.415Z,62.90
2017-06-09T05:02:41.920Z,64.30
2017-06-09T05:05:09.443Z,65.50
2017-06-09T05:07:36.948Z,65.20
2017-06-09T05:10:04.466Z,64.50
2017-06-09T05:12:31.975Z,63.50
2017-06-09T05:14:59.481Z,63.80
2017-06-09T05:17:27.003Z,63.30
2017-06-09T05:19:54.507Z,63.80
2017-06-09T05:22:25.977Z,62.50
2017-06-09T05:24:59.435Z,61.10
2017-06-09T05:27:26.959Z,59.10
2017-06-09T05:29:54.459Z,58.30
2017-06-09T05:32:21.967Z,58.70
2017-06-09T05:34:49.487Z,60.40
2017-06-09T05:37:16.996Z,62.70
2017-06-09T05:39:44.528Z,64.10
2017-06-09T05:42:12.032Z,63.30
2017-06-09T05:44:40.303Z,61.90
2017-06-09T05:47:07.831Z,61.80
2017-06-09T05:49:35.336Z,61.30
2017-06-09T05:52:02.849Z,61.90
2017-06-09T05:54:30.396Z,62.10
2017-06-09T05:59:30.800Z,60.10
2017-06-09T06:01:58.308Z,60.70
2017-06-09T06:04:25.827Z,60.40
2017-06-09T06:06:53.355Z,59.50
2017-06-09T06:09:21.627Z,60.40
2017-06-09T06:11:49.904Z,59.50
2017-06-09T06:14:17.427Z,59.00
2017-06-09T06:16:44.931Z,58.00
2017-06-09T06:19:13.220Z,59.10
2017-06-09T06:21:40.723Z,59.10
2017-06-09T06:24:08.243Z,58.30
2017-06-09T06:26:35.772Z,58.80
2017-06-09T06:29:03.280Z,55.10
2017-06-09T06:31:30.811Z,54.50
2017-06-09T06:33:58.316Z,50.10
2017-06-09T06:36:25.836Z,51.10
2017-06-09T06:38:53.356Z,52.80
2017-06-09T06:41:20.868Z,52.70
2017-06-09T06:43:48.388Z,51.30
2017-06-09T06:46:15.895Z,54.60
2017-06-09T06:48:43.419Z,52.60
2017-06-09T06:51:10.928Z,49.30
2017-06-09T06:53:38.447Z,48.30
2017-06-09T06:56:05.972Z,49.00
2017-06-09T06:58:33.481Z,46.60
2017-06-09T07:01:01.008Z,48.60
2017-06-09T07:03:28.523Z,47.60
2017-06-09T07:05:56.051Z,48.20
2017-06-09T07:08:23.560Z,46.60
2017-06-09T07:10:51.067Z,43.60
2017-06-09T07:13:18.591Z,46.30
2017-06-09T07:15:46.863Z,44.80
2017-06-09T07:18:14.387Z,44.80
2017-06-09T07:20:41.893Z,47.50
2017-06-09T07:23:09.424Z,46.90
2017-06-09T07:25:36.930Z,46.60
2017-06-09T07:28:04.441Z,44.30
2017-06-09T07:30:31.962Z,46.20
2017-06-09T07:32:59.467Z,44.80
2017-06-09T07:35:26.991Z,42.50
2017-06-09T07:37:54.496Z,45.30
2017-06-09T07:40:22.048Z,44.00
2017-06-09T07:42:50.324Z,46.90
2017-06-09T07:45:18.592Z,43.00
2017-06-09T07:47:46.883Z,43.50
2017-06-09T07:50:14.396Z,43.50
2017-06-09T07:52:41.915Z,41.70
2017-06-09T07:55:09.428Z,42.40
2017-06-09T07:57:36.956Z,42.50
2017-06-09T08:00:04.465Z,43.10
2017-06-09T08:02:31.983Z,40.00
2017-06-09T08:04:59.503Z,41.20
2017-06-09T08:07:27.020Z,40.00
2017-06-09T08:09:54.538Z,43.00
2017-06-09T08:12:22.044Z,43.40
2017-06-09T08:14:49.578Z,40.30
2017-06-09T08:17:17.092Z,40.20
2017-06-09T08:19:44.600Z,39.20
2017-06-09T08:22:12.120Z,37.20
2017-06-09T08:24:39.623Z,38.80
2017-06-09T08:27:07.152Z,37.70
2017-06-09T08:29:34.659Z,40.20
2017-06-09T08:32:02.959Z,40.30
2017-06-09T08:34:30.471Z,40.40
2017-06-09T08:36:58.004Z,42.90
2017-06-09T08:39:25.512Z,42.10
2017-06-09T08:41:53.024Z,40.10
2017-06-09T08:44:20.551Z,41.00
2017-06-09T08:46:48.064Z,38.10
2017-06-09T08:49:15.588Z,37.40
2017-06-09T08:51:43.091Z,39.10
2017-06-09T08:54:10.611Z,38.80
2017-06-09T08:56:38.115Z,34.60
2017-06-09T08:59:06.391Z,38.20
2017-06-09T09:01:34.688Z,39.80
2017-06-09T09:04:02.200Z,39.70
2017-06-09T09:06:29.718Z,37.90
2017-06-09T09:08:57.231Z,35.90
2017-06-09T09:11:24.752Z,33.10
2017-06-09T09:13:52.260Z,35.80
2017-06-09T09:16:20.540Z,34.30
2017-06-09T09:18:48.064Z,34.30
2017-06-09T09:21:15.567Z,35.50
2017-06-09T09:23:43.092Z,35.10
2017-06-09T09:26:10.596Z,35.40
2017-06-09T09:28:38.115Z,35.90
2017-06-09T09:31:05.626Z,35.30
2017-06-09T09:33:33.141Z,36.00
2017-06-09T09:36:01.428Z,31.40
2017-06-09T09:38:29.712Z,31.50
2017-06-09T09:40:57.240Z,31.50
2017-06-09T09:43:24.748Z,32.10
2017-06-09T09:45:52.271Z,35.20
2017-06-09T09:50:54.436Z,38.60
2017-06-09T09:53:21.940Z,37.00
2017-06-09T09:55:49.448Z,36.90
2017-06-09T09:58:16.975Z,36.20
2017-06-09T10:03:21.211Z,37.80
2017-06-09T10:05:48.715Z,36.40
2017-06-09T10:08:17.003Z,36.40
2017-06-09T10:10:45.277Z,37.50
2017-06-09T10:13:13.547Z,36.90
2017-06-09T10:15:41.068Z,36.90
2017-06-09T10:18:08.581Z,36.50
2017-06-09T10:20:36.107Z,36.30
2017-06-09T10:23:03.612Z,37.80
2017-06-09T10:25:31.137Z,37.00
2017-06-09T10:27:59.413Z,37.40
2017-06-09T10:30:27.695Z,38.40
2017-06-09T10:32:55.217Z,38.40
2017-06-09T10:35:22.725Z,35.60
2017-06-09T10:37:50.254Z,35.00
2017-06-09T10:40:17.760Z,33.60
2017-06-09T10:42:45.289Z,36.80
2017-06-09T10:45:13.562Z,37.10
2017-06-09T10:47:41.068Z,37.10
2017-06-09T10:50:08.588Z,36.10
2017-06-09T10:52:36.100Z,36.80
2017-06-09T10:55:03.624Z,36.40
2017-06-09T10:57:31.133Z,36.90
2017-06-09T10:59:58.666Z,36.40
2017-06-09T11:02:26.174Z,37.30
2017-06-09T11:04:54.443Z,38.70
2017-06-09T11:07:21.967Z,38.70
2017-06-09T11:09:49.473Z,38.00
2017-06-09T11:12:16.995Z,39.20
2017-06-09T11:14:44.503Z,38.50
2017-06-09T11:17:12.039Z,39.30
2017-06-09T11:19:40.308Z,39.50
2017-06-09T11:22:07.812Z,39.50
2017-06-09T11:24:35.332Z,39.70
2017-06-09T11:27:03.606Z,39.80
2017-06-09T11:29:31.135Z,39.80
2017-06-09T11:31:58.639Z,39.50
2017-06-09T11:34:26.163Z,39.60
2017-06-09T11:36:53.671Z,39.60
2017-06-09T11:39:21.180Z,40.10
2017-06-09T11:41:48.703Z,39.80
2017-06-09T11:44:16.232Z,40.40
2017-06-09T11:46:44.573Z,41.40
2017-06-09T11:49:12.600Z,42.50
2017-06-09T11:51:40.124Z,42.20
2017-06-09T11:54:08.395Z,41.40
2017-06-09T11:56:36.663Z,41.60
2017-06-09T11:59:04.947Z,44.00
2017-06-09T12:01:33.355Z,43.90
2017-06-09T12:04:00.875Z,43.80
2017-06-09T12:06:28.400Z,42.00
2017-06-09T12:08:55.947Z,42.50
2017-06-09T12:11:23.452Z,43.40
2017-06-09T12:13:51.723Z,42.70
2017-06-09T12:16:19.244Z,42.70
2017-06-09T12:18:46.747Z,41.50
2017-06-09T12:21:15.039Z,42.10
2017-06-09T12:23:42.544Z,41.50
2017-06-09T12:26:10.048Z,43.40
2017-06-09T12:28:38.335Z,41.60
2017-06-09T12:31:05.840Z,41.60
2017-06-09T12:33:33.363Z,42.50
2017-06-09T12:36:00.885Z,42.60
2017-06-09T12:38:28.387Z,42.70
2017-06-09T12:40:55.906Z,42.70
2017-06-09T12:43:24.184Z,43.10
2017-06-09T12:45:51.707Z,43.10
2017-06-09T12:48:19.207Z,41.50
2017-06-09T12:50:47.503Z,44.10
2017-06-09T12:53:15.011Z,44.00
2017-06-09T12:55:42.515Z,43.30
2017-06-09T12:58:10.035Z,41.50
2017-06-09T13:00:37.540Z,42.10
2017-06-09T13:03:05.063Z,42.00
2017-06-09T13:05:33.331Z,44.80
2017-06-09T13:08:00.870Z,44.80
2017-06-09T13:10:28.371Z,43.20
2017-06-09T13:12:56.647Z,43.10
2017-06-09T13:15:24.957Z,43.20
2017-06-09T13:17:52.461Z,43.10
2017-06-09T13:20:19.979Z,43.50
2017-06-09T13:22:47.479Z,44.60
2017-06-09T13:25:14.999Z,43.40
2017-06-09T13:27:42.503Z,42.60
2017-06-09T13:30:10.779Z,43.70
2017-06-09T13:32:39.067Z,44.00
2017-06-09T13:35:06.579Z,44.00
2017-06-09T13:37:34.104Z,43.70
2017-06-09T13:40:01.611Z,44.40
2017-06-09T13:42:29.131Z,44.50
2017-06-09T13:44:56.634Z,43.80
2017-06-09T13:47:24.144Z,45.10
2017-06-09T13:49:51.667Z,44.60
2017-06-09T13:52:19.172Z,44.40
2017-06-09T13:54:46.692Z,44.20
2017-06-09T13:57:14.195Z,45.30
2017-06-09T13:59:41.725Z,46.10
2017-06-09T14:02:09.231Z,45.40
2017-06-09T14:04:36.735Z,46.30
2017-06-09T14:07:04.269Z,45.70
2017-06-09T14:09:32.542Z,48.00
2017-06-09T14:12:00.063Z,47.90
2017-06-09T14:14:27.566Z,47.20
2017-06-09T14:16:55.863Z,47.60
2017-06-09T14:19:23.362Z,47.50
2017-06-09T14:21:50.867Z,47.00
2017-06-09T14:24:19.043Z,47.20
2017-06-09T14:26:46.547Z,47.30
2017-06-09T14:29:14.072Z,48.30
2017-06-09T14:31:41.581Z,48.10
2017-06-09T14:34:09.108Z,48.90
2017-06-09T14:36:36.618Z,49.00
2017-06-09T14:39:04.120Z,49.50
2017-06-09T14:41:31.641Z,49.50
2017-06-09T14:43:59.151Z,49.20
2017-06-09T14:46:26.671Z,49.60
2017-06-09T14:48:54.184Z,49.30
2017-06-09T14:51:21.720Z,50.00
2017-06-09T14:53:49.228Z,49.80
2017-06-09T14:56:17.499Z,51.00
2017-06-09T14:58:45.789Z,51.00
2017-06-09T15:01:14.065Z,50.50
2017-06-09T15:03:41.590Z,50.40
2017-06-09T15:06:09.104Z,51.00
2017-06-09T15:08:36.636Z,51.30
2017-06-09T15:11:04.143Z,50.90
2017-06-09T15:13:31.651Z,51.50
2017-06-09T15:15:59.176Z,51.40
2017-06-09T15:18:26.682Z,51.80
2017-06-09T15:20:54.203Z,51.80
2017-06-09T15:23:21.708Z,52.00
2017-06-09T15:25:49.232Z,52.40
2017-06-09T15:28:17.507Z,52.80
2017-06-09T15:30:45.784Z,53.30
2017-06-09T15:33:14.077Z,52.90
2017-06-09T15:35:42.351Z,53.00
2017-06-09T15:38:10.638Z,53.30
2017-06-09T15:40:38.142Z,53.20
2017-06-09T15:43:05.673Z,53.20
2017-06-09T15:45:33.178Z,53.50
2017-06-09T15:48:00.684Z,53.00
2017-06-09T15:50:28.204Z,53.30
2017-06-09T15:52:55.711Z,54.00
2017-06-09T15:55:23.232Z,53.20
2017-06-09T15:57:51.504Z,53.70
2017-06-09T16:00:19.802Z,53.90
2017-06-09T16:02:47.316Z,53.80
2017-06-09T16:05:14.819Z,53.90
2017-06-09T16:07:42.339Z,54.50
2017-06-09T16:10:09.851Z,53.70
2017-06-09T16:12:37.377Z,52.60
2017-06-09T16:15:05.654Z,52.60
2017-06-09T16:17:33.199Z,52.60
2017-06-09T16:20:01.472Z,52.70
2017-06-09T16:22:28.981Z,52.70
2017-06-09T16:24:56.507Z,53.50
2017-06-09T16:27:24.011Z,55.30
2017-06-09T16:29:51.532Z,54.00
2017-06-09T16:32:19.039Z,54.60
2017-06-09T16:34:46.573Z,54.60
2017-06-09T16:37:14.079Z,54.00
2017-06-09T16:39:41.588Z,54.90
2017-06-09T16:42:09.116Z,55.20
2017-06-09T16:44:36.619Z,56.20
2017-06-09T16:47:04.147Z,57.00
2017-06-09T16:49:31.651Z,57.10
2017-06-09T16:51:59.199Z,57.50
2017-06-09T16:54:26.704Z,57.90
2017-06-09T16:56:54.211Z,58.10
2017-06-09T16:59:21.731Z,58.70
2017-06-09T17:01:49.244Z,57.90
2017-06-09T17:04:16.777Z,58.70
2017-06-09T17:06:44.285Z,60.60
2017-06-09T17:09:11.820Z,59.80
2017-06-09T17:11:39.323Z,60.20
2017-06-09T17:14:06.828Z,60.10
2017-06-09T17:16:34.352Z,60.30
2017-06-09T17:19:01.861Z,60.70
2017-06-09T17:21:29.380Z,60.80
2017-06-09T17:23:56.886Z,61.50
2017-06-09T17:26:24.424Z,63.00
2017-06-09T17:28:51.931Z,63.70
2017-06-09T17:31:19.444Z,63.20
2017-06-09T17:33:46.966Z,64.40
2017-06-09T17:36:14.475Z,66.20
2017-06-09T17:38:41.997Z,66.80
2017-06-09T17:41:09.507Z,68.90
2017-06-09T17:43:37.801Z,74.60
2017-06-09T17:46:05.308Z,74.50
2017-06-09T17:48:32.812Z,75.60
2017-06-09T17:51:00.331Z,77.60
2017-06-09T17:53:27.835Z,80.00
2017-06-09T17:55:55.359Z,82.60
2017-06-09T17:58:23.635Z,85.40
2017-06-09T18:00:51.932Z,86.40
2017-06-09T18:03:19.439Z,85.40
2017-06-09T18:05:46.944Z,86.40
2017-06-09T18:08:14.479Z,86.60
2017-06-09T18:10:41.988Z,87.60
2017-06-09T18:13:09.512Z,88.40
2017-06-09T18:15:37.788Z,88.40
2017-06-09T18:18:05.311Z,88.40
2017-06-09T18:20:32.819Z,88.90
2017-06-09T18:23:00.347Z,88.30
2017-06-09T18:25:27.851Z,89.00
2017-06-09T18:27:55.360Z,89.30
2017-06-09T18:30:22.883Z,88.90
2017-06-09T18:32:50.398Z,86.00
2017-06-09T18:35:17.915Z,84.20
2017-06-09T18:37:45.411Z,82.70
2017-06-09T18:40:13.695Z,84.70
2017-06-09T18:42:41.972Z,85.20
2017-06-09T18:45:09.503Z,85.20
2017-06-09T18:47:37.013Z,87.50
2017-06-09T18:50:04.521Z,86.80
2017-06-09T18:52:32.043Z,84.80
2017-06-09T18:54:59.551Z,84.00
2017-06-09T18:57:27.843Z,84.30
2017-06-09T18:59:55.352Z,84.20
2017-06-09T19:02:22.884Z,84.50
2017-06-09T19:04:50.386Z,85.00
2017-06-09T19:07:17.891Z,85.80
2017-06-09T19:09:45.412Z,85.90
2017-06-09T19:12:12.915Z,86.70
2017-06-09T19:14:40.445Z,87.50
2017-06-09T19:17:07.946Z,87.70
2017-06-09T19:19:35.470Z,88.10
2017-06-09T19:22:02.983Z,87.50
2017-06-09T19:24:30.484Z,87.70
2017-06-09T19:26:58.002Z,86.20
2017-06-09T19:29:25.517Z,86.10
2017-06-09T19:31:53.035Z,86.50
2017-06-09T19:34:21.310Z,85.90
2017-06-09T19:36:48.836Z,85.90
2017-06-09T19:39:16.335Z,85.30
2017-06-09T19:41:44.604Z,85.90
2017-06-09T19:44:12.895Z,86.40
2017-06-09T19:46:41.159Z,86.00
2017-06-09T19:49:09.443Z,85.90
2017-06-09T19:51:37.707Z,85.80
2017-06-09T19:54:05.230Z,85.70
2017-06-09T19:56:32.727Z,85.70
2017-06-09T19:59:00.995Z,85.60
2017-06-09T20:01:28.523Z,85.50
2017-06-09T20:03:56.062Z,85.40
2017-06-09T20:06:23.579Z,86.40
2017-06-09T20:08:51.882Z,86.70
2017-06-09T20:11:19.402Z,86.50
2017-06-09T20:13:46.911Z,87.00
2017-06-09T20:16:14.418Z,87.40
2017-06-09T20:18:41.931Z,87.40
2017-06-09T20:21:09.436Z,87.00
2017-06-09T20:23:36.961Z,86.90
2017-06-09T20:26:04.476Z,87.10
2017-06-09T20:28:31.999Z,87.10
2017-06-09T20:30:59.503Z,86.90
2017-06-09T20:33:27.003Z,87.30
2017-06-09T20:35:54.527Z,87.90
2017-06-09T20:38:22.028Z,87.80
2017-06-09T20:40:49.548Z,88.00
2017-06-09T20:43:17.063Z,88.10
2017-06-09T20:45:44.594Z,88.10
2017-06-09T20:48:12.095Z,88.30
2017-06-09T20:50:40.360Z,88.90
2017-06-09T20:53:08.652Z,89.20
2017-06-09T20:55:36.164Z,88.90
2017-06-09T20:58:03.684Z,88.30
2017-06-09T21:00:31.187Z,88.20
2017-06-09T21:02:58.712Z,88.10
2017-06-09T21:05:26.219Z,87.90
2017-06-09T21:07:53.726Z,88.40
2017-06-09T21:10:21.243Z,87.60
2017-06-09T21:12:49.518Z,87.90
2017-06-09T21:15:17.047Z,87.80
2017-06-09T21:17:44.578Z,88.10
2017-06-09T21:20:12.080Z,87.90
2017-06-09T21:22:39.595Z,87.70
2017-06-09T21:25:07.100Z,87.50
2017-06-09T21:27:34.632Z,87.10
2017-06-09T21:30:02.153Z,87.20
2017-06-09T21:32:29.659Z,87.00
2017-06-09T21:34:57.184Z,87.20
2017-06-09T21:37:24.691Z,87.20
2017-06-09T21:39:53.011Z,86.20
2017-06-09T21:42:20.519Z,86.20
2017-06-09T21:44:48.027Z,85.90
2017-06-09T21:47:15.547Z,85.50
2017-06-09T21:49:43.057Z,85.70
2017-06-09T21:52:10.587Z,86.00
2017-06-09T21:54:38.095Z,86.30
2017-06-09T21:57:05.600Z,86.50
2017-06-09T21:59:33.122Z,85.80
2017-06-09T22:02:00.626Z,85.50
2017-06-09T22:04:28.156Z,86.10
2017-06-09T22:06:56.427Z,84.60
2017-06-09T22:09:23.962Z,84.20
2017-06-09T22:11:51.467Z,85.30
2017-06-09T22:14:18.969Z,84.50
2017-06-09T22:16:46.488Z,84.80
2017-06-09T22:19:13.992Z,84.50
2017-06-09T22:21:41.529Z,84.20
2017-06-09T22:24:09.035Z,84.80
2017-06-09T22:26:36.541Z,84.60
2017-06-09T22:29:04.061Z,82.80
2017-06-09T22:31:32.332Z,82.00
2017-06-09T22:33:59.863Z,81.10
2017-06-09T22:36:27.367Z,79.80
2017-06-09T22:38:54.871Z,80.50
2017-06-09T22:41:22.399Z,80.60
2017-06-09T22:43:49.903Z,79.30
2017-06-09T22:46:17.427Z,79.40
2017-06-09T22:48:44.931Z,79.70
2017-06-09T22:51:12.428Z,80.60
2017-06-09T22:53:39.947Z,80.50
2017-06-09T22:56:07.446Z,80.30
2017-06-09T22:58:34.975Z,80.90
2017-06-09T23:01:03.243Z,80.90
2017-06-09T23:03:30.739Z,80.90
2017-06-09T23:05:58.255Z,81.30
2017-06-09T23:08:25.761Z,81.50
2017-06-09T23:10:53.291Z,81.50
2017-06-09T23:13:21.559Z,82.10
2017-06-09T23:15:49.827Z,82.20
2017-06-09T23:18:17.348Z,82.20
2017-06-09T23:20:44.852Z,82.80
2017-06-09T23:23:12.379Z,83.10
2017-06-09T23:25:58.770Z,83.00
2017-06-09T23:28:26.299Z,83.40
2017-06-09T23:30:53.803Z,83.80
2017-06-09T23:33:21.307Z,84.00
2017-06-09T23:35:48.827Z,84.10
2017-06-09T23:38:16.323Z,85.50
2017-06-09T23:40:43.843Z,86.70
2017-06-09T23:43:11.347Z,87.50
2017-06-09T23:45:38.887Z,87.80
2017-06-09T23:48:06.476Z,88.10
2017-06-09T23:50:33.979Z,88.70
2017-06-09T23:53:01.503Z,88.70
2017-06-09T23:55:29.009Z,88.90
2017-06-09T23:57:57.300Z,89.60
